METAR Formatted Surface Weather Observation
Issued by NWS Austin/San Antonio, TX

Home | Current Version | Previous Version | Text Only | Print | Product List | Glossary On
Versions: 1
000
SAUS44 KEWX 251238 RRG
MTRSAT

METAR KSAT 251151Z COR 20005KT 10SM OVC011 26/23 A3004 RMK AO2 SLP154
     CIG RGD BINOVC T02560233 10278 20250 53006






USA.gov is the U.S. government's official web portal to all federal, state and local government web resources and services.